RCE weather

Clarence E Page Municipal Airport
Oklahoma City, Oklahoma, United States

Public forecast

Using degrees Fahrenheit for public forecast. Weather courtesy of forecast.io.

Closest aviation weather report (METAR) to Clarence E Page Municipal Airport

Closest report is Sundance Airpark, 8.9 nm (16.5 km) NE. Retrieved 2020/05/27 02:35 UTC (0 seconds ago):

KHSD 270235Z AUTO 00000KT 10SM CLR 20/15 A2989 RMK A01

Closest aviation forecast (TAF) to Clarence E Page Municipal Airport

Closest forecast is Will Rogers World Airport, 12.3 nm (22.8 km) ESE. Retrieved 2020-05-27 00:36 UTC (2 hours ago):

TAF KOKC 262333Z 2700/2724 VRB04KT P6SM SCT050 BKN100 FM271800 36006KT P6SM BKN100 PROB30 2719/2723 6SM -SHRA OVC045